Time;durP1;ratioP1;P1;durP2;ratioP2;P2;SDS_P1;SDS_P2;PMS_P1;PMS_P2;Temp;Humidity;BMP_temperature;BMP_pressure;BME280_temperature;BME280_humidity;BME280_pressure;Samples;Min_cycle;Max_cycle;Signal;HPM_P1;HPM_P2
2021/12/15 00:00:58;;;;;;;62.08;32.47;;;10.00;99.90;;;;;;5071482;28;20511;-73
2021/12/15 00:03:24;;;;;;;74.20;32.33;;;10.00;99.90;;;;;;5069796;28;20036;-74
2021/12/15 00:05:51;;;;;;;59.58;31.67;;;10.00;99.90;;;;;;5070085;28;20040;-74
2021/12/15 00:08:17;;;;;;;64.90;32.58;;;10.00;99.90;;;;;;5070363;28;20392;-74
2021/12/15 00:10:44;;;;;;;69.75;33.45;;;10.00;99.90;;;;;;5070233;28;20048;-74
2021/12/15 00:13:12;;;;;;;62.88;32.42;;;10.10;99.90;;;;;;5055803;28;20045;-74
2021/12/15 00:15:39;;;;;;;69.38;32.80;;;10.10;99.90;;;;;;5049553;28;20076;-74
2021/12/15 00:18:05;;;;;;;69.13;31.45;;;10.00;99.90;;;;;;5049308;28;20083;-74
2021/12/15 00:20:32;;;;;;;61.75;32.67;;;10.10;99.90;;;;;;5049776;28;20647;-74
2021/12/15 00:22:59;;;;;;;67.63;33.35;;;10.10;99.90;;;;;;5049312;28;20477;-74
2021/12/15 00:25:28;;;;;;;71.30;33.22;;;10.00;99.90;;;;;;5033552;28;20259;-74
2021/12/15 00:27:55;;;;;;;70.22;33.03;;;10.00;99.90;;;;;;5050130;28;20520;-74
2021/12/15 00:30:21;;;;;;;68.45;32.97;;;10.10;99.90;;;;;;5049311;28;20037;-73
2021/12/15 00:32:48;;;;;;;69.97;33.67;;;10.10;99.90;;;;;;5049517;28;20041;-74
2021/12/15 00:35:13;;;;;;;71.43;32.75;;;10.10;99.90;;;;;;5049799;28;20601;-74
2021/12/15 00:37:39;;;;;;;68.57;32.00;;;10.00;99.90;;;;;;5049487;28;20048;-74
2021/12/15 00:40:07;;;;;;;63.08;31.70;;;10.00;99.90;;;;;;5049567;28;20068;-74
2021/12/15 00:42:33;;;;;;;63.55;31.75;;;10.00;99.90;;;;;;5049213;28;20465;-74
2021/12/15 00:44:59;;;;;;;67.43;32.95;;;10.00;99.90;;;;;;5050890;28;20175;-74
2021/12/15 00:47:25;;;;;;;66.35;31.67;;;10.00;99.90;;;;;;5049846;28;20052;-74
2021/12/15 00:49:51;;;;;;;66.88;32.63;;;10.10;99.90;;;;;;5049485;28;20041;-75
2021/12/15 00:52:16;;;;;;;60.83;30.85;;;10.10;99.90;;;;;;5050292;28;20039;-74
2021/12/15 00:54:42;;;;;;;63.28;32.58;;;10.10;99.90;;;;;;5049288;28;20037;-74
2021/12/15 00:57:08;;;;;;;59.17;29.48;;;10.10;99.90;;;;;;5032768;28;20048;-74
2021/12/15 00:59:33;;;;;;;69.65;30.63;;;10.10;99.90;;;;;;5049413;28;20040;-74
2021/12/15 01:02:00;;;;;;;63.92;31.35;;;10.10;99.90;;;;;;5049856;28;20477;-74
2021/12/15 01:04:29;;;;;;;60.28;29.60;;;10.10;99.90;;;;;;5050211;28;20033;-73
2021/12/15 01:06:58;;;;;;;61.83;30.33;;;10.10;99.90;;;;;;5051126;28;20374;-74
2021/12/15 01:09:32;;;;;;;61.15;29.83;;;10.10;99.90;;;;;;5049812;28;20094;-74
2021/12/15 01:22:29;;;;;;;59.78;29.15;;;10.10;99.90;;;;;;5054124;28;20106;-74
2021/12/15 01:25:01;;;;;;;57.33;28.38;;;10.10;99.90;;;;;;5053056;28;20040;-74
2021/12/15 01:27:26;;;;;;;60.17;29.65;;;10.10;99.90;;;;;;5052889;28;20048;-74
2021/12/15 01:29:53;;;;;;;62.70;28.40;;;10.10;99.90;;;;;;5052825;28;20045;-74
2021/12/15 01:32:19;;;;;;;62.53;29.70;;;10.10;99.90;;;;;;5053967;28;20464;-73
2021/12/15 01:34:45;;;;;;;59.50;28.25;;;10.10;99.90;;;;;;5052850;28;20127;-74
2021/12/15 01:37:12;;;;;;;54.63;26.10;;;10.10;99.90;;;;;;5052929;28;20041;-74
2021/12/15 01:39:38;;;;;;;63.10;29.45;;;10.10;99.90;;;;;;5052586;28;20151;-74
2021/12/15 01:42:04;;;;;;;61.38;30.15;;;10.10;99.90;;;;;;5053280;28;20083;-74
2021/12/15 01:47:03;;;;;;;60.67;30.73;;;10.10;99.90;;;;;;5052618;28;20048;-73
2021/12/15 01:49:40;;;;;;;62.03;27.73;;;10.10;99.90;;;;;;5052606;28;20116;-74
2021/12/15 01:52:17;;;;;;;57.33;27.58;;;10.10;99.90;;;;;;5053425;28;20048;-74
2021/12/15 01:54:47;;;;;;;55.00;26.65;;;10.10;99.90;;;;;;5052424;28;20041;-74
2021/12/15 01:57:13;;;;;;;61.72;27.83;;;10.10;99.90;;;;;;5052409;28;20128;-74
2021/12/15 01:59:40;;;;;;;57.78;27.27;;;10.10;99.90;;;;;;5053797;28;20048;-74
2021/12/15 02:02:07;;;;;;;55.50;27.50;;;10.10;99.90;;;;;;5053365;28;20374;-74
2021/12/15 02:04:32;;;;;;;56.28;26.17;;;10.10;99.90;;;;;;5052504;28;20510;-74
2021/12/15 02:06:59;;;;;;;57.85;25.95;;;10.00;99.90;;;;;;5035637;28;20125;-73
2021/12/15 02:12:00;;;;;;;55.15;25.45;;;10.10;99.90;;;;;;5053170;28;20049;-75
2021/12/15 02:14:30;;;;;;;54.40;26.02;;;10.00;99.90;;;;;;5051941;28;20041;-74
2021/12/15 02:16:56;;;;;;;51.97;26.38;;;10.10;99.90;;;;;;5051826;28;20052;-74
2021/12/15 02:19:22;;;;;;;56.70;26.63;;;10.10;99.90;;;;;;5052027;28;20044;-74
2021/12/15 02:21:47;;;;;;;51.58;24.73;;;10.10;99.90;;;;;;5051767;28;20040;-74
2021/12/15 02:24:13;;;;;;;55.22;25.13;;;10.00;99.90;;;;;;5051695;28;20485;-74
2021/12/15 02:26:45;;;;;;;54.97;25.20;;;10.00;99.90;;;;;;5051815;28;20404;-74
2021/12/15 02:29:15;;;;;;;53.93;24.83;;;10.10;99.90;;;;;;5052607;28;20123;-74
2021/12/15 02:34:31;;;;;;;55.50;26.00;;;10.00;99.90;;;;;;5051600;28;20049;-74
2021/12/15 02:37:17;;;;;;;56.65;25.70;;;10.00;99.90;;;;;;5052682;28;20131;-74
2021/12/15 02:39:47;;;;;;;57.05;25.95;;;10.00;99.90;;;;;;5051671;28;20041;-74
2021/12/15 02:42:13;;;;;;;55.40;25.77;;;10.00;99.90;;;;;;5051242;28;20040;-74
2021/12/15 02:44:43;;;;;;;56.80;26.27;;;10.00;99.90;;;;;;5051399;28;20033;-73
2021/12/15 02:47:10;;;;;;;56.58;25.75;;;10.00;99.90;;;;;;5051829;28;20087;-75
2021/12/15 02:49:36;;;;;;;55.55;26.73;;;10.10;99.90;;;;;;5051575;28;20386;-74
2021/12/15 02:52:05;;;;;;;51.47;25.77;;;10.10;99.90;;;;;;5052194;28;20098;-73
2021/12/15 02:54:31;;;;;;;54.78;24.80;;;10.00;99.90;;;;;;5051248;28;20068;-75
2021/12/15 02:57:04;;;;;;;50.35;24.38;;;10.10;99.90;;;;;;5052586;28;20091;-74
2021/12/15 02:59:38;;;;;;;55.65;25.10;;;10.00;99.90;;;;;;5051171;28;20095;-74
2021/12/15 03:05:00;;;;;;;56.08;26.15;;;10.00;99.90;;;;;;5051333;28;20402;-74
2021/12/15 03:15:34;;;;;;;60.22;26.13;;;10.00;99.90;;;;;;5051032;28;20049;-74
2021/12/15 03:18:13;;;;;;;65.03;28.25;;;10.00;99.90;;;;;;5050948;28;20045;-74
2021/12/15 03:20:48;;;;;;;59.85;26.65;;;10.00;99.90;;;;;;5050998;28;20037;-75
2021/12/15 03:23:20;;;;;;;62.60;28.15;;;10.00;99.90;;;;;;5050663;28;20512;-74
2021/12/15 03:25:46;;;;;;;69.85;28.65;;;10.00;99.90;;;;;;5050815;28;20041;-75
2021/12/15 03:33:57;;;;;;;67.30;28.40;;;10.00;99.90;;;;;;5051934;28;20041;-68
2021/12/15 03:36:51;;;;;;;72.15;29.17;;;10.00;99.90;;;;;;5052528;28;20112;-68
2021/12/15 03:39:17;;;;;;;70.55;30.80;;;10.00;99.90;;;;;;5031323;28;20053;-66
2021/12/15 03:41:43;;;;;;;68.47;29.23;;;10.00;99.90;;;;;;5031859;28;20543;-65
2021/12/15 03:44:09;;;;;;;69.20;30.98;;;10.00;99.90;;;;;;5032448;28;20033;-68
2021/12/15 03:46:35;;;;;;;68.05;29.00;;;10.00;99.90;;;;;;5032359;28;20108;-68
2021/12/15 03:49:01;;;;;;;69.32;29.35;;;10.00;99.90;;;;;;5032523;28;20033;-68
2021/12/15 03:51:26;;;;;;;75.32;30.45;;;10.00;99.90;;;;;;5032372;28;20041;-68
2021/12/15 03:53:52;;;;;;;77.47;32.03;;;10.00;99.90;;;;;;5032037;28;20068;-68
2021/12/15 03:56:18;;;;;;;78.50;32.67;;;10.00;99.90;;;;;;5032209;28;20029;-68
2021/12/15 03:58:46;;;;;;;73.00;31.90;;;10.00;99.90;;;;;;5031937;28;20049;-68
2021/12/15 04:01:15;;;;;;;78.10;31.70;;;10.00;99.90;;;;;;5030936;28;20072;-67
2021/12/15 04:03:49;;;;;;;76.15;32.22;;;10.00;99.90;;;;;;5030883;28;20458;-67
2021/12/15 04:06:19;;;;;;;78.43;32.67;;;10.00;99.90;;;;;;5030773;28;20048;-67
2021/12/15 04:08:45;;;;;;;77.00;33.00;;;10.00;99.90;;;;;;5030581;28;20053;-67
2021/12/15 04:11:14;;;;;;;79.55;32.72;;;10.00;99.90;;;;;;5032071;28;20084;-68
2021/12/15 04:13:42;;;;;;;76.97;32.30;;;10.00;99.90;;;;;;5031833;28;20037;-68
2021/12/15 04:16:15;;;;;;;78.10;32.60;;;10.00;99.90;;;;;;5030636;28;20041;-67
2021/12/15 04:18:41;;;;;;;78.00;33.78;;;10.00;99.90;;;;;;5031903;28;20045;-68
2021/12/15 04:21:07;;;;;;;83.32;33.47;;;10.00;99.90;;;;;;5030543;28;20077;-67
2021/12/15 04:23:33;;;;;;;78.85;33.65;;;10.00;99.90;;;;;;5030559;28;20080;-68
2021/12/15 04:25:59;;;;;;;79.80;32.88;;;10.00;99.90;;;;;;5032053;28;20043;-68
2021/12/15 04:28:29;;;;;;;76.03;34.05;;;10.00;99.90;;;;;;5030333;28;20046;-68
2021/12/15 04:30:57;;;;;;;84.40;34.92;;;10.00;99.90;;;;;;5031806;28;20489;-68
2021/12/15 04:33:29;;;;;;;82.75;35.10;;;10.00;99.90;;;;;;5030517;28;20452;-68
2021/12/15 04:36:01;;;;;;;87.55;35.83;;;9.90;99.90;;;;;;5031714;28;20041;-68
2021/12/15 04:38:28;;;;;;;81.78;36.67;;;10.00;99.90;;;;;;5031080;28;20057;-68
2021/12/15 04:40:55;;;;;;;89.57;35.63;;;9.90;99.90;;;;;;5032314;28;20120;-68
2021/12/15 04:43:21;;;;;;;70.57;32.92;;;9.90;99.90;;;;;;5031026;28;20091;-68
2021/12/15 04:45:47;;;;;;;101.00;38.10;;;10.00;99.90;;;;;;5035127;28;20088;-67
2021/12/15 04:48:14;;;;;;;83.30;35.67;;;10.00;99.90;;;;;;5035142;28;20076;-68
2021/12/15 04:50:41;;;;;;;90.80;38.60;;;10.00;99.90;;;;;;5035812;28;20103;-68
2021/12/15 04:53:08;;;;;;;77.90;35.13;;;10.00;99.90;;;;;;5035522;28;20052;-68
2021/12/15 04:55:36;;;;;;;81.68;35.47;;;9.90;99.90;;;;;;5036237;28;20406;-68
2021/12/15 04:58:04;;;;;;;84.93;35.75;;;9.90;99.90;;;;;;5036422;28;20056;-68
2021/12/15 05:00:33;;;;;;;86.35;38.25;;;9.90;99.90;;;;;;5035133;28;20044;-68
2021/12/15 05:03:00;;;;;;;79.97;36.65;;;10.00;99.90;;;;;;5034760;28;20095;-68
2021/12/15 05:05:27;;;;;;;81.53;37.65;;;9.90;99.90;;;;;;5036483;28;20064;-67
2021/12/15 05:07:54;;;;;;;85.45;39.05;;;9.90;99.90;;;;;;5035454;28;20045;-68
2021/12/15 05:10:21;;;;;;;86.80;38.05;;;9.90;99.90;;;;;;5035477;28;20409;-68
2021/12/15 05:12:46;;;;;;;85.63;37.42;;;10.00;99.90;;;;;;5033741;28;20107;-68
2021/12/15 05:15:13;;;;;;;84.28;38.80;;;10.00;99.90;;;;;;5033941;28;20493;-68
2021/12/15 05:17:39;;;;;;;87.25;38.35;;;10.00;99.90;;;;;;5033698;28;20073;-68
2021/12/15 05:20:08;;;;;;;94.07;40.17;;;9.90;99.90;;;;;;5035359;28;20409;-68
2021/12/15 05:22:35;;;;;;;83.28;38.50;;;10.00;99.90;;;;;;5017447;28;20088;-68
2021/12/15 05:25:01;;;;;;;89.25;39.45;;;10.00;99.90;;;;;;5033809;28;20497;-68
2021/12/15 05:27:27;;;;;;;82.82;38.75;;;9.90;99.90;;;;;;5033764;28;20509;-68
2021/12/15 05:29:53;;;;;;;86.90;38.78;;;10.00;99.90;;;;;;5034878;28;20037;-68
2021/12/15 05:32:22;;;;;;;91.30;40.38;;;9.90;99.90;;;;;;5033267;28;20056;-68
2021/12/15 05:34:49;;;;;;;89.60;39.92;;;10.00;99.90;;;;;;5034931;28;20079;-68
2021/12/15 05:37:17;;;;;;;82.65;38.65;;;10.00;99.90;;;;;;5033560;28;20117;-68
2021/12/15 05:39:45;;;;;;;88.18;40.85;;;10.00;99.90;;;;;;5034760;28;20533;-68
2021/12/15 05:42:11;;;;;;;85.32;39.08;;;10.00;99.90;;;;;;5034533;28;20109;-68
2021/12/15 05:44:37;;;;;;;86.00;40.80;;;10.00;99.90;;;;;;5033381;28;20519;-68
2021/12/15 05:47:04;;;;;;;86.03;40.03;;;9.90;99.90;;;;;;5034775;28;20076;-68
2021/12/15 05:49:30;;;;;;;89.93;40.88;;;10.00;99.90;;;;;;5034710;28;20719;-68
2021/12/15 05:51:56;;;;;;;89.38;42.80;;;10.00;99.90;;;;;;5033014;28;20125;-68
2021/12/15 05:54:22;;;;;;;87.70;40.80;;;10.00;99.90;;;;;;5033583;28;20484;-68
2021/12/15 05:56:49;;;;;;;92.93;43.35;;;9.90;99.90;;;;;;5032446;28;20053;-68
2021/12/15 05:59:15;;;;;;;86.75;40.47;;;10.00;99.90;;;;;;5034233;28;20040;-67
2021/12/15 06:01:41;;;;;;;90.63;42.28;;;10.00;99.90;;;;;;5033006;28;20041;-67
2021/12/15 06:04:07;;;;;;;97.18;43.95;;;10.00;99.90;;;;;;5034476;28;20394;-68
2021/12/15 06:06:34;;;;;;;84.75;42.22;;;10.00;99.90;;;;;;5034341;28;20038;-68
2021/12/15 06:09:02;;;;;;;89.47;42.03;;;10.00;99.90;;;;;;5034304;28;20041;-68
2021/12/15 06:11:27;;;;;;;86.22;40.28;;;10.00;99.90;;;;;;5033213;28;20095;-68
2021/12/15 06:13:53;;;;;;;86.60;40.88;;;10.00;99.90;;;;;;5033432;28;20045;-68
2021/12/15 06:16:22;;;;;;;86.68;40.53;;;10.00;99.90;;;;;;5035588;28;20077;-68
2021/12/15 06:18:50;;;;;;;88.78;41.97;;;10.00;99.90;;;;;;5035477;28;20498;-68
2021/12/15 06:21:17;;;;;;;83.80;40.75;;;10.00;99.90;;;;;;5033908;28;20037;-68
2021/12/15 06:23:43;;;;;;;85.78;39.63;;;10.00;99.90;;;;;;5032922;28;20091;-68
2021/12/15 06:26:09;;;;;;;91.55;40.53;;;10.00;99.90;;;;;;5033967;28;20038;-68
2021/12/15 06:28:36;;;;;;;80.40;39.63;;;10.00;99.90;;;;;;5033657;28;20528;-68
2021/12/15 06:31:05;;;;;;;92.30;40.15;;;10.00;99.90;;;;;;5033813;28;20045;-68
2021/12/15 06:33:31;;;;;;;84.78;40.67;;;9.90;99.90;;;;;;5033614;28;20053;-68
2021/12/15 06:35:59;;;;;;;84.18;41.33;;;10.00;99.90;;;;;;5033886;28;20048;-68
2021/12/15 06:38:30;;;;;;;92.78;43.00;;;9.90;99.90;;;;;;5032391;28;20458;-68
2021/12/15 06:40:58;;;;;;;88.47;39.60;;;10.00;99.90;;;;;;5033685;28;20041;-68
2021/12/15 06:43:24;;;;;;;88.90;40.00;;;10.00;99.90;;;;;;5033282;28;20490;-68
2021/12/15 06:46:02;;;;;;;84.15;40.22;;;10.00;99.90;;;;;;5033737;28;20108;-68
2021/12/15 06:59:25;;;;;;;91.40;40.40;;;10.00;99.90;;;;;;5033311;28;20037;-68
2021/12/15 07:01:52;;;;;;;89.28;39.85;;;10.00;99.90;;;;;;5032882;28;20060;-68
2021/12/15 07:04:19;;;;;;;92.32;38.83;;;9.90;99.90;;;;;;5033355;28;20041;-67
2021/12/15 07:06:46;;;;;;;88.95;40.00;;;10.00;99.90;;;;;;5032734;28;20084;-68
2021/12/15 07:09:12;;;;;;;88.90;40.13;;;10.00;99.90;;;;;;5032691;28;20053;-67
2021/12/15 07:11:37;;;;;;;90.63;38.60;;;9.90;99.90;;;;;;5032924;28;20034;-68
2021/12/15 07:14:03;;;;;;;84.93;38.50;;;10.00;99.90;;;;;;5032835;28;20048;-67
2021/12/15 07:16:31;;;;;;;82.57;39.58;;;9.90;99.90;;;;;;5032794;28;20040;-67
2021/12/15 07:19:10;;;;;;;93.53;41.03;;;10.00;99.90;;;;;;5033042;28;20049;-68
2021/12/15 07:21:40;;;;;;;87.85;39.35;;;10.00;99.90;;;;;;5032893;28;20041;-68
2021/12/15 07:24:06;;;;;;;83.93;38.45;;;10.00;99.90;;;;;;5032787;28;20410;-68
2021/12/15 07:26:34;;;;;;;89.05;39.92;;;10.00;99.90;;;;;;5032517;28;20112;-67
2021/12/15 07:28:59;;;;;;;93.65;37.67;;;10.00;99.90;;;;;;5032588;28;20045;-68
2021/12/15 07:31:25;;;;;;;81.93;36.80;;;10.00;99.90;;;;;;5032773;28;20052;-68
2021/12/15 07:33:51;;;;;;;83.93;37.03;;;10.00;99.90;;;;;;5032331;28;20076;-67
2021/12/15 07:36:17;;;;;;;83.10;38.05;;;10.00;99.90;;;;;;5031619;28;20045;-68
2021/12/15 07:38:43;;;;;;;90.07;39.22;;;10.00;99.90;;;;;;5032342;28;20048;-68
2021/12/15 07:41:21;;;;;;;87.32;38.78;;;10.00;99.90;;;;;;5032467;28;20033;-68
2021/12/15 07:43:47;;;;;;;81.20;38.10;;;10.00;99.90;;;;;;5032452;28;20037;-68
2021/12/15 07:46:13;;;;;;;83.75;37.22;;;10.00;99.90;;;;;;5031114;28;20092;-68
2021/12/15 07:48:40;;;;;;;85.00;37.88;;;10.00;99.90;;;;;;5032355;28;20068;-68
2021/12/15 07:51:08;;;;;;;83.45;37.53;;;10.00;99.90;;;;;;5031115;28;20046;-68
2021/12/15 07:53:34;;;;;;;81.25;38.15;;;10.00;99.90;;;;;;5031960;28;20095;-68
2021/12/15 07:55:59;;;;;;;83.70;36.97;;;10.00;99.90;;;;;;5032235;28;20069;-68
2021/12/15 07:58:27;;;;;;;94.05;38.15;;;10.00;99.90;;;;;;5031988;28;20509;-67
2021/12/15 08:00:55;;;;;;;85.65;38.45;;;10.00;99.90;;;;;;5032141;28;20045;-68
2021/12/15 08:03:21;;;;;;;84.72;39.58;;;10.00;99.90;;;;;;5028948;28;20056;-67
2021/12/15 08:05:49;;;;;;;83.68;37.25;;;10.00;99.90;;;;;;5028585;28;20040;-68
2021/12/15 08:08:15;;;;;;;85.78;37.58;;;10.00;99.90;;;;;;5031751;28;20120;-67
2021/12/15 08:10:42;;;;;;;85.53;39.78;;;10.00;99.90;;;;;;5031096;28;20533;-68
2021/12/15 08:13:08;;;;;;;88.53;37.55;;;10.00;99.90;;;;;;5030920;28;20489;-68
2021/12/15 08:15:33;;;;;;;87.70;37.53;;;10.00;99.90;;;;;;5030372;28;20044;-68
2021/12/15 08:17:59;;;;;;;77.72;36.65;;;10.00;99.90;;;;;;5031261;28;20041;-68
2021/12/15 08:20:28;;;;;;;91.28;38.28;;;10.00;99.90;;;;;;5031268;28;20037;-68
2021/12/15 08:22:54;;;;;;;83.78;37.63;;;10.00;99.90;;;;;;5031001;28;20069;-68
2021/12/15 08:25:21;;;;;;;88.90;37.33;;;10.00;99.90;;;;;;5031311;28;20122;-67
2021/12/15 08:27:50;;;;;;;89.43;39.25;;;10.10;99.90;;;;;;5029839;28;20045;-68
2021/12/15 08:30:20;;;;;;;85.50;38.47;;;10.10;99.90;;;;;;5030531;28;20046;-68
2021/12/15 08:32:49;;;;;;;87.70;38.55;;;10.00;99.90;;;;;;5031600;28;20116;-68
2021/12/15 08:35:16;;;;;;;90.55;36.45;;;10.10;99.90;;;;;;5031792;28;20049;-68
2021/12/15 08:37:41;;;;;;;85.00;37.78;;;10.10;99.90;;;;;;5030285;28;20049;-68
2021/12/15 08:40:07;;;;;;;87.68;37.78;;;10.00;99.90;;;;;;5030757;28;20044;-68
2021/12/15 08:42:33;;;;;;;88.60;38.45;;;10.00;99.90;;;;;;5031375;28;20084;-68
2021/12/15 08:44:59;;;;;;;90.95;39.38;;;10.10;99.90;;;;;;5031651;28;20041;-68
2021/12/15 08:47:25;;;;;;;85.65;38.08;;;10.00;99.90;;;;;;5031657;28;20388;-68
2021/12/15 08:49:53;;;;;;;88.65;39.35;;;10.00;99.90;;;;;;5030451;28;20045;-68
2021/12/15 08:52:19;;;;;;;90.20;37.83;;;10.00;99.90;;;;;;5031479;28;20087;-68
2021/12/15 08:54:44;;;;;;;85.35;35.67;;;10.00;99.90;;;;;;5031569;28;20046;-69
2021/12/15 08:57:10;;;;;;;80.90;36.25;;;10.10;99.90;;;;;;5031563;28;20045;-69
2021/12/15 08:59:36;;;;;;;86.15;36.25;;;10.10;99.90;;;;;;5030466;28;20064;-68
2021/12/15 09:02:02;;;;;;;85.45;36.50;;;10.10;99.90;;;;;;5031224;28;20044;-68
2021/12/15 09:04:28;;;;;;;90.30;37.10;;;10.10;99.90;;;;;;5030488;28;20046;-69
2021/12/15 09:06:54;;;;;;;81.10;35.45;;;10.10;99.90;;;;;;5031641;28;20037;-67
2021/12/15 09:09:20;;;;;;;79.97;33.15;;;10.10;99.90;;;;;;5031498;28;20037;-68
2021/12/15 09:11:49;;;;;;;86.63;37.65;;;10.10;99.90;;;;;;5031177;28;20629;-68
2021/12/15 09:14:15;;;;;;;88.65;36.13;;;10.10;99.90;;;;;;5031247;28;20034;-68
2021/12/15 09:16:43;;;;;;;77.68;33.72;;;10.10;99.90;;;;;;5030309;28;20497;-69
2021/12/15 09:19:09;;;;;;;79.32;34.70;;;10.10;99.90;;;;;;5030074;28;20512;-69
2021/12/15 09:21:36;;;;;;;79.43;34.47;;;10.20;99.90;;;;;;5031291;28;20041;-69
2021/12/15 09:24:05;;;;;;;84.70;36.58;;;10.20;99.90;;;;;;5031368;28;20069;-67
2021/12/15 09:26:32;;;;;;;88.80;35.20;;;10.20;99.90;;;;;;5031222;28;20044;-67
2021/12/15 09:28:58;;;;;;;81.90;35.17;;;10.20;99.90;;;;;;5029975;28;20052;-68
2021/12/15 09:31:25;;;;;;;81.38;33.10;;;10.20;99.90;;;;;;5033153;28;20045;-68
2021/12/15 09:33:53;;;;;;;87.60;34.95;;;10.20;99.90;;;;;;5034568;28;20107;-68
2021/12/15 09:36:20;;;;;;;80.72;36.17;;;10.20;99.90;;;;;;5035098;28;20033;-68
2021/12/15 09:38:48;;;;;;;82.78;35.67;;;10.20;99.90;;;;;;5034888;28;20041;-68
2021/12/15 09:41:16;;;;;;;93.50;35.78;;;10.20;99.90;;;;;;5034885;28;20077;-68
2021/12/15 09:43:43;;;;;;;88.95;33.92;;;10.20;99.90;;;;;;5034460;28;20068;-67
2021/12/15 09:46:15;;;;;;;86.57;35.20;;;10.30;99.90;;;;;;5034158;28;20116;-70
2021/12/15 10:18:47;;;;;;;77.43;32.50;;;10.40;99.90;;;;;;5034053;28;20526;-69
2021/12/15 10:21:23;;;;;;;81.10;32.72;;;10.40;99.90;;;;;;5033736;28;20092;-69
2021/12/15 10:23:50;;;;;;;74.80;33.50;;;10.40;99.90;;;;;;5033854;28;20095;-70
2021/12/15 10:26:20;;;;;;;77.78;32.97;;;10.40;99.90;;;;;;5033942;28;20406;-67
2021/12/15 10:28:52;;;;;;;80.05;32.72;;;10.40;99.90;;;;;;5033718;28;20045;-69
2021/12/15 10:31:20;;;;;;;79.88;32.33;;;10.40;99.90;;;;;;5033884;28;20552;-69
2021/12/15 10:33:51;;;;;;;76.63;33.80;;;10.40;99.90;;;;;;5033600;28;20041;-69
2021/12/15 10:36:29;;;;;;;80.53;32.53;;;10.40;99.90;;;;;;5032595;28;20041;-70
2021/12/15 10:39:08;;;;;;;64.90;28.23;;;10.40;99.90;;;;;;5032378;28;20124;-70
2021/12/15 10:41:40;;;;;;;71.97;31.50;;;10.40;99.90;;;;;;5033669;28;20083;-70
2021/12/15 10:44:11;;;;;;;66.65;29.10;;;10.40;99.90;;;;;;5032322;28;20068;-70
2021/12/15 10:46:46;;;;;;;65.47;28.23;;;10.40;99.90;;;;;;5032297;28;20128;-70
2021/12/15 10:49:18;;;;;;;61.92;28.38;;;10.40;99.90;;;;;;5032211;28;20053;-70
2021/12/15 10:51:47;;;;;;;63.50;28.00;;;10.40;99.90;;;;;;5031911;28;20034;-70
2021/12/15 10:54:17;;;;;;;66.60;29.15;;;10.50;99.90;;;;;;5015939;28;20052;-70
2021/12/15 10:56:57;;;;;;;59.72;26.45;;;10.50;99.90;;;;;;5031938;28;20041;-70
2021/12/15 10:59:27;;;;;;;53.33;25.52;;;10.50;99.90;;;;;;5033315;28;20037;-70
2021/12/15 11:02:05;;;;;;;55.95;25.08;;;10.50;99.90;;;;;;5033089;28;20068;-70
2021/12/15 11:04:37;;;;;;;57.83;25.77;;;10.50;99.90;;;;;;5033454;28;20041;-70
2021/12/15 11:07:14;;;;;;;56.20;26.73;;;10.60;99.90;;;;;;5032794;28;20053;-70
2021/12/15 11:09:56;;;;;;;55.60;23.25;;;10.50;99.90;;;;;;5033191;28;20084;-69
2021/12/15 11:12:21;;;;;;;52.72;24.38;;;10.60;99.90;;;;;;5033034;28;20180;-70
2021/12/15 11:14:52;;;;;;;62.58;24.90;;;10.60;99.90;;;;;;5033202;28;20068;-70
2021/12/15 11:17:29;;;;;;;55.67;24.45;;;10.60;99.90;;;;;;5032979;28;20045;-70
2021/12/15 11:19:56;;;;;;;51.45;22.80;;;10.60;99.90;;;;;;5032981;28;20034;-70
2021/12/15 11:22:31;;;;;;;48.10;23.63;;;10.60;99.90;;;;;;5032805;28;20103;-70
2021/12/15 11:24:57;;;;;;;52.40;25.23;;;10.70;99.90;;;;;;5033048;28;20038;-70
2021/12/15 11:27:23;;;;;;;49.53;23.50;;;10.70;99.90;;;;;;5031321;28;20068;-70
2021/12/15 11:29:49;;;;;;;58.53;23.60;;;10.70;99.90;;;;;;5031928;28;20501;-70
2021/12/15 11:32:38;;;;;;;55.75;24.42;;;10.70;99.90;;;;;;5032475;28;20037;-70
2021/12/15 11:35:17;;;;;;;44.50;23.20;;;10.70;99.90;;;;;;5031722;28;20413;-70
2021/12/15 11:38:03;;;;;;;49.05;23.40;;;10.70;99.90;;;;;;5031406;28;20045;-70
2021/12/15 11:40:37;;;;;;;51.17;22.15;;;10.70;99.90;;;;;;5009365;28;20498;-71
2021/12/15 11:43:05;;;;;;;48.75;23.17;;;10.70;99.90;;;;;;5012461;28;20045;-70
2021/12/15 11:45:31;;;;;;;50.97;22.70;;;10.80;99.90;;;;;;5012862;28;20038;-69
2021/12/15 11:48:21;;;;;;;51.50;24.48;;;10.80;99.90;;;;;;5011209;28;20049;-69
2021/12/15 11:50:50;;;;;;;49.45;23.20;;;10.80;99.90;;;;;;5026740;28;20048;-69
2021/12/15 11:53:29;;;;;;;45.58;22.50;;;10.80;99.90;;;;;;5030262;28;20076;-70
2021/12/15 11:56:09;;;;;;;54.38;23.02;;;10.90;99.90;;;;;;5031255;28;20073;-70
2021/12/15 11:58:34;;;;;;;45.72;21.88;;;10.90;99.90;;;;;;5030793;28;20168;-70
2021/12/15 12:01:00;;;;;;;47.50;23.63;;;10.90;99.90;;;;;;5032353;28;20033;-69
2021/12/15 12:03:25;;;;;;;51.33;22.38;;;10.90;99.90;;;;;;5031944;28;20037;-70
2021/12/15 12:05:51;;;;;;;46.55;22.60;;;10.90;99.90;;;;;;5030607;28;20115;-69
2021/12/15 12:08:17;;;;;;;42.60;21.70;;;10.90;99.90;;;;;;5030801;28;20041;-70
2021/12/15 12:10:48;;;;;;;47.78;22.23;;;10.90;99.90;;;;;;5032154;28;20052;-70
2021/12/15 12:13:22;;;;;;;47.10;20.33;;;10.90;99.90;;;;;;5030798;28;20564;-70
2021/12/15 12:15:52;;;;;;;45.75;20.63;;;10.90;99.90;;;;;;5030743;28;20040;-70
2021/12/15 12:18:22;;;;;;;41.50;21.33;;;10.90;99.90;;;;;;5032057;28;20116;-69
2021/12/15 12:20:52;;;;;;;43.25;19.45;;;10.90;99.90;;;;;;5032169;28;20095;-70
2021/12/15 12:23:24;;;;;;;39.00;20.02;;;10.90;99.90;;;;;;5031772;28;20390;-70
2021/12/15 12:25:53;;;;;;;37.00;18.05;;;10.90;99.90;;;;;;5031927;28;20616;-70
2021/12/15 12:28:25;;;;;;;42.22;19.33;;;10.90;99.90;;;;;;5030311;28;20684;-70
2021/12/15 12:31:04;;;;;;;41.13;19.65;;;10.90;99.90;;;;;;5030719;28;20041;-70
2021/12/15 12:33:30;;;;;;;39.40;17.60;;;11.00;99.90;;;;;;5030297;28;20049;-70
2021/12/15 12:36:07;;;;;;;33.88;17.27;;;11.00;99.90;;;;;;5030538;28;20045;-70
2021/12/15 12:38:36;;;;;;;33.15;17.45;;;11.00;99.90;;;;;;5030448;28;20038;-70
2021/12/15 12:41:11;;;;;;;34.20;17.27;;;11.00;99.90;;;;;;5032068;28;20033;-70
2021/12/15 12:43:40;;;;;;;31.05;15.88;;;11.00;99.90;;;;;;5031548;28;20041;-70
2021/12/15 12:46:19;;;;;;;34.80;16.85;;;11.00;99.90;;;;;;5014767;28;20046;-70
2021/12/15 12:49:25;;;;;;;33.92;16.60;;;11.00;99.90;;;;;;5011907;28;20053;-69
2021/12/15 13:00:29;;;;;;;33.10;17.00;;;10.90;99.90;;;;;;4993125;28;20052;-70
2021/12/15 13:03:05;;;;;;;39.45;17.65;;;10.90;99.90;;;;;;5014342;28;20182;-70
2021/12/15 13:05:48;;;;;;;34.47;17.52;;;10.90;99.90;;;;;;5014109;28;20494;-70
2021/12/15 13:08:34;;;;;;;37.92;18.13;;;10.90;99.90;;;;;;5016373;28;20037;-69
2021/12/15 13:11:21;;;;;;;34.72;17.83;;;10.90;99.90;;;;;;5014489;28;20125;-70
2021/12/15 13:13:54;;;;;;;36.70;19.02;;;10.90;99.90;;;;;;5011054;28;20064;-69
2021/12/15 13:16:35;;;;;;;32.05;16.52;;;10.90;99.90;;;;;;5017951;28;20041;-70
2021/12/15 13:19:04;;;;;;;37.85;17.73;;;10.90;99.90;;;;;;5019251;28;20042;-70
2021/12/15 13:30:33;;;;;;;33.35;16.63;;;10.80;99.90;;;;;;5015660;28;20050;-70
2021/12/15 13:33:06;;;;;;;36.97;17.15;;;10.80;99.90;;;;;;5015212;28;20041;-70
2021/12/15 13:35:47;;;;;;;32.45;17.88;;;10.80;99.90;;;;;;5014041;28;20041;-70
2021/12/15 13:38:18;;;;;;;34.60;17.08;;;10.80;99.90;;;;;;5014997;28;20041;-70
2021/12/15 13:41:20;;;;;;;34.33;16.55;;;10.80;99.90;;;;;;5014016;28;20033;-70
2021/12/15 13:43:57;;;;;;;33.17;16.52;;;10.80;99.90;;;;;;5013702;28;20077;-70
2021/12/15 13:46:34;;;;;;;27.75;15.32;;;10.80;99.90;;;;;;5013620;28;20044;-70
2021/12/15 13:49:09;;;;;;;22.23;12.57;;;10.80;99.90;;;;;;5015007;28;20461;-70
2021/12/15 13:52:03;;;;;;;25.63;12.68;;;10.80;99.90;;;;;;5013752;28;20458;-69
2021/12/15 13:54:38;;;;;;;21.90;11.50;;;10.80;99.90;;;;;;5014977;28;20042;-69
2021/12/15 13:57:12;;;;;;;30.92;12.52;;;10.80;99.90;;;;;;5014640;28;20053;-70
2021/12/15 13:59:52;;;;;;;19.92;10.70;;;10.80;99.90;;;;;;5013701;28;20398;-70
2021/12/15 14:02:29;;;;;;;22.50;9.63;;;10.80;99.90;;;;;;5013460;28;20088;-69
2021/12/15 14:04:58;;;;;;;16.58;8.95;;;10.70;99.90;;;;;;5013388;28;20124;-70
2021/12/15 14:07:50;;;;;;;17.05;8.25;;;10.80;99.90;;;;;;5014494;28;20425;-69
2021/12/15 14:10:17;;;;;;;17.77;7.82;;;10.70;99.90;;;;;;5013201;28;20065;-70
2021/12/15 14:12:46;;;;;;;18.58;8.60;;;10.80;99.90;;;;;;5012913;28;20073;-69